Bakchar, Russia
Current Conditions -  °F | °C
As of 4:00 PM on Friday 19 Dec 2014 (Local Time) from UNTT Reporting Station
Overcast Overcast  
Wind Chill:   Ceiling: 6600
Heat Index: 16°   Visibility: 6mi
Dew Point: 12°   Wind: 16mph
Humidity: 86%   Direction: 220°SW
Pressure: 30.5"   Gusts: NA
Location:  57.02°N, 82.07°E
Report Text: UNTT 190900Z 22007MPS 9999 FEW040 OVC066 M09/M11 Q1033 NOSIGRMK QFE759 21420050
Loading
Personal Weather Stations






























Interactive Weather Map New forecast layout! Learn more

10-Day Weather Forecast

Advertisements
Track Severe Weather on mobile